Time;durP1;ratioP1;P1;durP2;ratioP2;P2;SDS_P1;SDS_P2;PMS_P1;PMS_P2;Temp;Humidity;BMP_temperature;BMP_pressure;BME280_temperature;BME280_humidity;BME280_pressure;Samples;Min_cycle;Max_cycle;Signal;HPM_P1;HPM_P2
2022/01/31 00:01:06;;;;;;;7.47;4.77;;;;;;;0.47;100.00;100836.81;5015891;28;20309;-49
2022/01/31 00:03:34;;;;;;;7.70;5.53;;;;;;;0.52;100.00;100838.78;5016169;28;20250;-49
2022/01/31 00:06:00;;;;;;;6.70;5.43;;;;;;;0.57;100.00;100829.63;5017633;28;20841;-48
2022/01/31 00:08:25;;;;;;;9.23;5.80;;;;;;;0.63;100.00;100838.31;5016351;28;20309;-48
2022/01/31 00:10:51;;;;;;;11.43;5.87;;;;;;;0.69;100.00;100842.00;5019789;28;20278;-47
2022/01/31 00:13:39;;;;;;;9.57;6.10;;;;;;;0.76;100.00;100845.66;5024939;28;20668;-47
2022/01/31 00:16:07;;;;;;;9.17;6.50;;;;;;;0.84;100.00;100841.72;5014836;28;20193;-48
2022/01/31 00:18:32;;;;;;;10.90;6.70;;;;;;;0.90;100.00;100848.75;5018568;28;20652;-48
2022/01/31 00:20:58;;;;;;;8.67;6.37;;;;;;;0.95;100.00;100847.25;5017501;28;20180;-46
2022/01/31 00:23:23;;;;;;;11.13;7.07;;;;;;;1.01;100.00;100826.22;5018264;28;20203;-47
2022/01/31 00:25:49;;;;;;;8.00;6.10;;;;;;;1.06;100.00;100837.47;5019177;28;20540;-47
2022/01/31 00:28:14;;;;;;;7.70;6.00;;;;;;;1.11;100.00;100827.44;5019541;28;20684;-47
2022/01/31 00:30:40;;;;;;;10.43;6.67;;;;;;;1.15;100.00;100821.66;5018151;28;20188;-47
2022/01/31 00:33:05;;;;;;;8.97;6.10;;;;;;;1.19;100.00;100815.88;5022217;28;20683;-47
2022/01/31 00:35:31;;;;;;;8.80;6.50;;;;;;;1.23;100.00;100820.25;5018132;28;20688;-47
2022/01/31 00:37:56;;;;;;;12.23;8.10;;;;;;;1.25;100.00;100805.88;5022725;28;20176;-47
2022/01/31 00:40:22;;;;;;;11.67;8.00;;;;;;;1.27;100.00;100790.66;5016427;28;20218;-47
2022/01/31 00:42:47;;;;;;;10.50;7.43;;;;;;;1.27;100.00;100781.31;5019515;28;20741;-50
2022/01/31 00:45:17;;;;;;;10.70;7.40;;;;;;;1.28;100.00;100762.66;5019495;28;20192;-47
2022/01/31 00:47:48;;;;;;;9.47;6.37;;;;;;;1.28;100.00;100757.56;5016856;28;20175;-47
2022/01/31 00:50:16;;;;;;;11.70;7.80;;;;;;;1.27;100.00;100760.06;5016982;28;20184;-47
2022/01/31 00:52:43;;;;;;;9.93;7.77;;;;;;;1.26;100.00;100754.06;5017293;28;20755;-48
2022/01/31 00:55:10;;;;;;;10.63;7.40;;;;;;;1.25;100.00;100760.00;5012830;28;20239;-47
2022/01/31 00:57:40;;;;;;;14.40;7.90;;;;;;;1.26;100.00;100769.38;5015056;28;20654;-47
2022/01/31 01:00:06;;;;;;;9.77;7.17;;;;;;;1.29;100.00;100751.66;5014951;28;20658;-48
2022/01/31 01:02:32;;;;;;;9.90;6.97;;;;;;;1.32;100.00;100741.56;5019576;28;20302;-48
2022/01/31 01:04:57;;;;;;;9.00;6.87;;;;;;;1.33;100.00;100733.09;5018305;28;20193;-48
2022/01/31 01:07:23;;;;;;;10.93;6.33;;;;;;;1.35;100.00;100740.78;5015378;28;20325;-48
2022/01/31 01:09:49;;;;;;;11.30;6.43;;;;;;;1.36;100.00;100729.78;5016658;28;20187;-48
2022/01/31 01:12:17;;;;;;;8.40;6.33;;;;;;;1.38;100.00;100697.56;5016794;28;20236;-48
2022/01/31 01:14:43;;;;;;;8.97;5.70;;;;;;;1.41;100.00;100673.84;5015698;28;20220;-47
2022/01/31 01:17:09;;;;;;;9.57;6.37;;;;;;;1.42;100.00;100675.56;5019214;28;20267;-48
2022/01/31 01:19:35;;;;;;;7.93;6.23;;;;;;;1.41;100.00;100673.84;5017488;28;20621;-47
2022/01/31 01:22:01;;;;;;;8.67;5.63;;;;;;;1.44;100.00;100653.53;5015177;28;20182;-48
2022/01/31 01:24:26;;;;;;;8.23;6.40;;;;;;;1.45;100.00;100643.38;5015122;28;20177;-48
2022/01/31 01:26:52;;;;;;;11.87;6.17;;;;;;;1.44;100.00;100638.25;5017442;28;20191;-48
2022/01/31 01:29:19;;;;;;;9.60;5.73;;;;;;;1.44;100.00;100622.94;5021696;28;20183;-49
2022/01/31 01:31:45;;;;;;;8.50;6.23;;;;;;;1.45;100.00;100605.13;5019606;28;20193;-49
2022/01/31 01:34:10;;;;;;;7.97;5.67;;;;;;;1.46;100.00;100606.84;5015506;28;20623;-49
2022/01/31 01:36:38;;;;;;;8.50;6.00;;;;;;;1.49;100.00;100594.22;5016334;28;20280;-49
2022/01/31 01:39:03;;;;;;;10.37;6.10;;;;;;;1.53;100.00;100572.22;5015175;28;20704;-49
2022/01/31 01:41:29;;;;;;;10.80;6.67;;;;;;;1.54;100.00;100560.34;5015872;28;20191;-48
2022/01/31 01:43:54;;;;;;;10.60;6.43;;;;;;;1.51;100.00;100535.63;5017712;28;20306;-48
2022/01/31 01:46:19;;;;;;;11.83;5.73;;;;;;;1.49;100.00;100514.28;5017246;28;20637;-47
2022/01/31 01:48:45;;;;;;;9.10;5.93;;;;;;;1.49;100.00;100509.19;5015406;28;20257;-48
2022/01/31 01:51:11;;;;;;;6.60;5.73;;;;;;;1.50;100.00;100504.13;5016036;28;20183;-47
2022/01/31 01:53:37;;;;;;;10.23;6.13;;;;;;;1.58;100.00;100499.25;5019278;28;20253;-47
2022/01/31 01:56:02;;;;;;;10.70;5.90;;;;;;;1.66;100.00;100502.06;5017860;28;20662;-47
2022/01/31 01:58:37;;;;;;;10.00;5.93;;;;;;;1.70;100.00;100496.22;5025523;28;20191;-47
2022/01/31 02:01:03;;;;;;;10.37;5.40;;;;;;;1.78;100.00;100486.25;5017170;28;20275;-47
2022/01/31 02:03:32;;;;;;;11.53;5.37;;;;;;;1.81;100.00;100477.00;5014257;28;20243;-48
2022/01/31 02:05:58;;;;;;;9.27;5.10;;;;;;;1.86;100.00;100483.94;5016117;28;20191;-48
2022/01/31 02:08:24;;;;;;;12.10;5.30;;;;;;;1.92;100.00;100484.97;5023071;28;20199;-48
2022/01/31 02:10:50;;;;;;;9.80;5.27;;;;;;;1.95;100.00;100474.88;5014340;28;20593;-48
2022/01/31 02:13:15;;;;;;;9.00;5.10;;;;;;;1.97;100.00;100468.09;5019287;28;20211;-48
2022/01/31 02:15:44;;;;;;;9.50;5.17;;;;;;;2.02;100.00;100465.69;5021582;28;20219;-48
2022/01/31 02:18:10;;;;;;;13.23;5.33;;;;;;;2.07;100.00;100458.16;5021051;28;20191;-48
2022/01/31 02:20:38;;;;;;;12.43;6.53;;;;;;;2.16;100.00;100457.56;5020202;28;20185;-46
2022/01/31 02:23:09;;;;;;;8.40;5.40;;;;;;;2.19;100.00;100445.75;5026983;28;20216;-48
2022/01/31 02:25:51;;;;;;;11.90;4.80;;;;;;;2.26;100.00;100421.22;5023610;28;20660;-48
2022/01/31 02:28:16;;;;;;;7.17;4.40;;;;;;;2.27;100.00;100416.16;5018436;28;20566;-48
2022/01/31 02:30:42;;;;;;;13.17;5.57;;;;;;;2.32;100.00;100413.75;5014869;28;20226;-48
2022/01/31 02:33:08;;;;;;;10.87;4.70;;;;;;;2.38;100.00;100393.47;5018852;28;20262;-47
2022/01/31 02:35:35;;;;;;;9.80;4.50;;;;;;;2.44;100.00;100374.88;5022035;28;20212;-48
2022/01/31 02:38:00;;;;;;;9.83;4.60;;;;;;;2.48;100.00;100343.47;5021242;28;20191;-47
2022/01/31 02:40:25;;;;;;;7.73;4.00;;;;;;;2.54;100.00;100338.53;5022761;28;20246;-48
2022/01/31 02:42:52;;;;;;;10.67;4.53;;;;;;;2.58;100.00;100336.91;5016996;28;21427;-48
2022/01/31 02:45:17;;;;;;;8.60;4.07;;;;;;;2.59;100.00;100334.38;5027573;28;20190;-48
2022/01/31 02:47:50;;;;;;;8.07;4.50;;;;;;;2.62;100.00;100338.72;5019377;28;20188;-48
2022/01/31 02:50:15;;;;;;;10.17;4.40;;;;;;;2.68;100.00;100338.84;5020236;28;20197;-48
2022/01/31 02:52:47;;;;;;;7.30;4.40;;;;;;;2.71;100.00;100322.75;5025686;28;20219;-48
2022/01/31 02:55:12;;;;;;;7.10;4.20;;;;;;;2.75;100.00;100304.06;5021047;28;20734;-48
2022/01/31 02:57:38;;;;;;;9.87;4.40;;;;;;;2.78;100.00;100286.25;5020141;28;20208;-48
2022/01/31 03:00:05;;;;;;;9.77;4.13;;;;;;;2.82;100.00;100275.28;5020412;28;20198;-48
2022/01/31 03:02:30;;;;;;;8.23;4.13;;;;;;;2.84;100.00;100280.44;5017997;28;20311;-48
2022/01/31 03:04:55;;;;;;;7.07;3.97;;;;;;;2.86;100.00;100283.88;5020409;28;20258;-48
2022/01/31 03:07:21;;;;;;;8.60;4.00;;;;;;;2.88;100.00;100277.97;5021499;28;20216;-48
2022/01/31 03:09:46;;;;;;;8.90;3.73;;;;;;;2.96;100.00;100256.84;5024736;28;20277;-47
2022/01/31 03:12:13;;;;;;;11.13;4.33;;;;;;;3.01;100.00;100250.97;5018146;28;20553;-48
2022/01/31 03:14:42;;;;;;;10.60;4.23;;;;;;;3.04;100.00;100228.03;5021092;28;20274;-48
2022/01/31 03:17:08;;;;;;;8.17;4.20;;;;;;;3.07;100.00;100188.88;5015939;28;20295;-48
2022/01/31 03:19:38;;;;;;;8.17;3.77;;;;;;;3.11;100.00;100165.09;5018138;28;20183;-48
2022/01/31 03:22:04;;;;;;;12.33;4.40;;;;;;;3.13;100.00;100172.78;5026449;28;20234;-48
2022/01/31 03:24:29;;;;;;;9.70;3.90;;;;;;;3.15;100.00;100209.50;5016803;28;20175;-48
2022/01/31 03:26:55;;;;;;;7.53;3.60;;;;;;;3.15;100.00;100235.06;5018006;28;20195;-48
2022/01/31 03:29:20;;;;;;;9.00;4.10;;;;;;;3.22;100.00;100226.69;5019006;28;20180;-48
2022/01/31 03:31:46;;;;;;;7.20;3.80;;;;;;;3.24;100.00;100213.94;5020776;28;20230;-48
2022/01/31 03:34:11;;;;;;;9.20;3.70;;;;;;;3.26;100.00;100214.81;5024502;28;21181;-48
2022/01/31 03:36:36;;;;;;;11.20;4.37;;;;;;;3.27;100.00;100204.63;5023887;28;20172;-48
2022/01/31 03:39:02;;;;;;;7.67;3.43;;;;;;;3.29;100.00;100205.50;5024280;28;20183;-48
2022/01/31 03:41:28;;;;;;;7.70;3.37;;;;;;;3.32;100.00;100203.03;5020500;28;20655;-48
2022/01/31 03:43:53;;;;;;;6.10;3.30;;;;;;;3.37;100.00;100195.44;5018144;28;20445;-48
2022/01/31 03:46:19;;;;;;;5.67;3.67;;;;;;;3.39;100.00;100190.34;5022570;28;20192;-48
2022/01/31 03:48:46;;;;;;;7.37;3.80;;;;;;;3.41;100.00;100186.97;5017766;28;20188;-48
2022/01/31 03:51:12;;;;;;;8.77;3.20;;;;;;;3.46;100.00;100182.81;5019886;28;20675;-48
2022/01/31 03:53:37;;;;;;;7.00;3.20;;;;;;;3.47;100.00;100184.56;5017342;28;20629;-48
2022/01/31 03:56:03;;;;;;;10.43;3.37;;;;;;;3.47;100.00;100199.91;5018373;28;20215;-48
2022/01/31 03:58:28;;;;;;;6.27;3.17;;;;;;;3.50;100.00;100197.38;5014778;28;20181;-48
2022/01/31 04:00:54;;;;;;;9.53;3.63;;;;;;;3.56;100.00;100186.38;5019517;28;20180;-47
2022/01/31 04:03:19;;;;;;;7.30;3.47;;;;;;;3.57;100.00;100180.44;5019979;28;20234;-48
2022/01/31 04:05:45;;;;;;;7.17;3.17;;;;;;;3.57;100.00;100174.47;5019173;28;20569;-47
2022/01/31 04:08:12;;;;;;;8.80;2.80;;;;;;;3.62;100.00;100162.63;5019240;28;20188;-48
2022/01/31 04:10:39;;;;;;;6.10;3.53;;;;;;;3.65;100.00;100158.41;5015581;28;20184;-48
2022/01/31 04:13:07;;;;;;;8.87;3.50;;;;;;;3.69;100.00;100151.66;5022859;28;20908;-47
2022/01/31 04:15:36;;;;;;;6.63;3.23;;;;;;;3.72;100.00;100153.38;5019592;28;20614;-45
2022/01/31 04:18:03;;;;;;;9.90;3.80;;;;;;;3.73;100.00;100150.88;5022110;28;20176;-48
2022/01/31 04:20:28;;;;;;;8.33;3.40;;;;;;;3.76;100.00;100150.94;5017371;28;20176;-48
2022/01/31 04:30:51;;;;;;;5.20;2.87;;;;;;;3.83;100.00;100140.78;5017724;28;20270;-48
2022/01/31 04:33:17;;;;;;;7.97;3.07;;;;;;;3.86;100.00;100136.56;5013722;28;20223;-48
2022/01/31 04:35:42;;;;;;;9.03;3.30;;;;;;;3.88;100.00;100128.91;5018468;28;20211;-48
2022/01/31 04:38:08;;;;;;;9.43;3.40;;;;;;;3.90;100.00;100120.41;5019056;28;20563;-48
2022/01/31 04:40:33;;;;;;;6.63;3.40;;;;;;;3.92;100.00;100110.22;5026480;28;20548;-60
2022/01/31 04:42:59;;;;;;;9.47;3.40;;;;;;;3.94;100.00;100094.03;5021461;28;20204;-48
2022/01/31 04:45:24;;;;;;;7.17;3.40;;;;;;;3.98;100.00;100084.69;5015263;28;20177;-48
2022/01/31 04:47:50;;;;;;;5.97;3.47;;;;;;;4.00;100.00;100072.75;5017302;28;20184;-48
2022/01/31 04:50:15;;;;;;;7.93;3.50;;;;;;;4.02;100.00;100059.97;5018720;28;20185;-48
2022/01/31 04:52:42;;;;;;;10.53;3.90;;;;;;;4.03;100.00;100043.78;5019576;28;20220;-49
2022/01/31 04:55:11;;;;;;;6.33;2.87;;;;;;;4.03;100.00;100030.97;5018025;28;20266;-49
2022/01/31 04:57:37;;;;;;;10.30;3.80;;;;;;;4.02;100.00;100022.44;5015888;28;20187;-46
2022/01/31 05:00:05;;;;;;;7.47;3.30;;;;;;;4.02;100.00;100026.69;5018143;28;20871;-46
2022/01/31 05:02:30;;;;;;;7.40;3.73;;;;;;;4.03;100.00;100019.03;5018715;28;20216;-47
2022/01/31 05:04:56;;;;;;;5.23;3.60;;;;;;;4.02;100.00;100004.50;5018092;28;20553;-48
2022/01/31 05:07:21;;;;;;;9.07;3.07;;;;;;;4.04;100.00;100005.41;5015631;28;20455;-48
2022/01/31 05:09:47;;;;;;;7.00;3.10;;;;;;;4.05;100.00;99986.63;5017276;28;20578;-47
2022/01/31 05:12:13;;;;;;;9.60;3.40;;;;;;;4.08;100.00;99975.56;5016011;28;20211;-47
2022/01/31 05:14:38;;;;;;;8.27;3.90;;;;;;;4.06;100.00;99969.56;5016618;28;20212;-48
2022/01/31 05:17:04;;;;;;;8.20;4.10;;;;;;;4.08;100.00;99947.38;5017987;28;20191;-48
2022/01/31 05:19:29;;;;;;;8.07;3.50;;;;;;;4.09;100.00;99936.31;5017196;28;20184;-51
2022/01/31 05:21:54;;;;;;;8.40;3.83;;;;;;;4.10;100.00;99931.19;5018954;28;20192;-47
2022/01/31 05:24:20;;;;;;;6.07;3.57;;;;;;;4.11;100.00;99921.81;5015638;28;20653;-49
2022/01/31 05:26:50;;;;;;;8.50;3.10;;;;;;;4.12;100.00;99923.53;5018223;28;20366;-47
2022/01/31 05:29:17;;;;;;;7.93;3.50;;;;;;;4.14;100.00;99905.63;5015480;28;20180;-48
2022/01/31 05:31:43;;;;;;;8.50;3.77;;;;;;;4.12;100.00;99900.50;5015915;28;20192;-50
2022/01/31 05:34:08;;;;;;;7.43;3.77;;;;;;;4.12;100.00;99906.47;5014909;28;20208;-49
2022/01/31 05:36:33;;;;;;;9.57;4.17;;;;;;;4.14;100.00;99903.94;5019001;28;20274;-50
2022/01/31 05:38:59;;;;;;;6.07;3.60;;;;;;;4.17;100.00;99903.94;5015187;28;20655;-47
2022/01/31 05:41:24;;;;;;;6.80;3.27;;;;;;;4.18;100.00;99887.75;5015062;28;20195;-47
2022/01/31 05:43:49;;;;;;;8.13;3.77;;;;;;;4.21;100.00;99874.97;5015772;28;20303;-47
2022/01/31 05:46:15;;;;;;;7.57;3.00;;;;;;;4.23;100.00;99875.84;5017263;28;20310;-47
2022/01/31 05:48:41;;;;;;;6.43;3.30;;;;;;;4.19;100.00;99884.34;5016978;28;20188;-48
2022/01/31 05:51:17;;;;;;;7.80;3.93;;;;;;;4.21;100.00;99898.03;5019961;28;20207;-48
2022/01/31 05:53:44;;;;;;;6.80;3.30;;;;;;;4.24;100.00;99879.25;5017393;28;20216;-48
2022/01/31 05:56:11;;;;;;;8.73;3.73;;;;;;;4.22;100.00;99884.38;5017186;28;20659;-48
2022/01/31 05:58:37;;;;;;;9.23;3.90;;;;;;;4.21;100.00;99880.09;5020032;28;20206;-48
2022/01/31 06:01:02;;;;;;;6.37;3.73;;;;;;;4.24;100.00;99886.94;5020340;28;20191;-48
2022/01/31 06:03:28;;;;;;;7.70;4.03;;;;;;;4.22;100.00;99896.34;5021205;28;20199;-48
2022/01/31 06:05:53;;;;;;;8.23;4.37;;;;;;;4.22;100.00;99883.53;5020994;28;20228;-48
2022/01/31 06:08:18;;;;;;;6.80;3.70;;;;;;;4.21;100.00;99885.22;5024306;28;20214;-48
2022/01/31 06:10:46;;;;;;;9.37;3.80;;;;;;;4.23;100.00;99892.94;5024567;28;20190;-48
2022/01/31 06:13:11;;;;;;;9.23;4.03;;;;;;;4.20;100.00;99887.78;5025729;28;20301;-48
2022/01/31 06:15:37;;;;;;;8.97;3.87;;;;;;;4.16;100.00;99901.38;5026453;28;20575;-48
2022/01/31 06:18:03;;;;;;;9.23;4.57;;;;;;;4.19;100.00;99894.59;5026298;28;20191;-47
2022/01/31 06:20:28;;;;;;;8.53;4.50;;;;;;;4.16;100.00;99894.53;5021778;28;20219;-48
2022/01/31 06:22:54;;;;;;;7.60;4.60;;;;;;;4.14;100.00;99903.06;5027638;28;20635;-48
2022/01/31 06:25:20;;;;;;;14.30;4.53;;;;;;;4.13;100.00;99909.91;5018852;28;20192;-48
2022/01/31 06:27:45;;;;;;;8.83;4.90;;;;;;;4.10;100.00;99914.97;5026482;28;20210;-48
2022/01/31 06:30:11;;;;;;;8.07;4.83;;;;;;;4.10;100.00;99917.53;5020930;28;20207;-48
2022/01/31 06:32:37;;;;;;;9.47;4.57;;;;;;;4.05;100.00;99924.31;5019732;28;20226;-48
2022/01/31 06:35:04;;;;;;;10.10;4.50;;;;;;;4.06;100.00;99910.66;5017886;28;20636;-48
2022/01/31 06:37:29;;;;;;;9.33;4.87;;;;;;;4.07;100.00;99905.56;5021077;28;20187;-48
2022/01/31 06:39:55;;;;;;;8.90;4.13;;;;;;;4.06;100.00;99915.78;5017272;28;20200;-48
2022/01/31 06:42:20;;;;;;;7.97;4.07;;;;;;;4.05;100.00;99917.50;5017944;28;20210;-48
2022/01/31 06:44:46;;;;;;;9.93;5.57;;;;;;;4.01;100.00;99918.28;5018131;28;20953;-48
2022/01/31 06:47:11;;;;;;;10.23;4.50;;;;;;;4.01;100.00;99931.09;5022094;28;20279;-48
2022/01/31 06:49:36;;;;;;;7.63;4.43;;;;;;;3.98;100.00;99915.69;5014170;28;20280;-48
2022/01/31 06:52:03;;;;;;;9.97;4.50;;;;;;;3.94;100.00;99913.94;5016416;28;20200;-48
2022/01/31 06:54:29;;;;;;;6.87;4.07;;;;;;;3.86;100.00;99916.38;5021110;28;20205;-48
2022/01/31 06:56:56;;;;;;;10.93;4.87;;;;;;;3.86;100.00;99916.38;5019793;28;20651;-48
2022/01/31 06:59:22;;;;;;;7.77;4.23;;;;;;;3.85;100.00;99935.19;5019345;28;20249;-48
2022/01/31 07:01:47;;;;;;;8.50;4.47;;;;;;;3.84;100.00;99933.47;5021690;28;20196;-47
2022/01/31 07:04:12;;;;;;;10.13;4.80;;;;;;;3.83;100.00;99933.41;5020879;28;20255;-48
2022/01/31 07:06:38;;;;;;;7.80;4.93;;;;;;;3.82;100.00;99927.47;5027333;28;20253;-48
2022/01/31 07:09:03;;;;;;;9.40;4.70;;;;;;;3.83;100.00;99946.22;5017201;28;20481;-48
2022/01/31 07:11:33;;;;;;;9.00;4.80;;;;;;;3.84;100.00;99938.56;5024885;28;20267;-48
2022/01/31 07:14:29;;;;;;;8.70;5.00;;;;;;;3.87;100.00;99923.22;5025757;28;20753;-48
2022/01/31 07:16:46;;;;;;;11.40;5.53;;;;;;;3.84;100.00;99930.91;5028560;28;20643;-48
2022/01/31 07:19:11;;;;;;;13.40;7.87;;;;;;;3.80;100.00;99940.22;5026094;28;20279;-48
2022/01/31 07:21:45;;;;;;;12.97;8.43;;;;;;;3.79;100.00;99941.06;5023189;28;20270;-48
2022/01/31 07:26:47;;;;;;;16.83;10.70;;;;;;;3.83;100.00;99939.41;5024645;28;20191;-48
2022/01/31 07:29:13;;;;;;;11.57;5.70;;;;;;;3.86;100.00;99952.22;5021975;28;20656;-48
2022/01/31 07:31:40;;;;;;;10.77;7.07;;;;;;;3.83;100.00;99952.22;5024134;28;20190;-48
2022/01/31 07:34:07;;;;;;;12.33;9.30;;;;;;;3.84;100.00;99953.06;5019400;28;20265;-48
2022/01/31 07:36:33;;;;;;;13.00;7.97;;;;;;;3.85;100.00;99959.91;5020236;28;20188;-48
2022/01/31 07:38:58;;;;;;;10.43;7.00;;;;;;;3.84;100.00;99969.28;5016188;28;20541;-48
2022/01/31 07:41:24;;;;;;;9.37;7.10;;;;;;;3.86;100.00;99951.38;5019047;28;20211;-48
2022/01/31 07:43:49;;;;;;;11.70;5.57;;;;;;;3.90;100.00;99955.72;5014867;28;20212;-48
2022/01/31 07:46:14;;;;;;;9.13;6.00;;;;;;;3.88;100.00;99952.28;5019609;28;20250;-48
2022/01/31 07:48:40;;;;;;;9.43;5.07;;;;;;;3.86;100.00;99956.50;5019382;28;20200;-48
2022/01/31 07:51:06;;;;;;;6.60;5.17;;;;;;;3.86;100.00;99971.88;5020674;28;20214;-48
2022/01/31 07:53:32;;;;;;;6.83;4.27;;;;;;;3.87;100.00;99979.56;5020511;28;20301;-48
2022/01/31 07:56:00;;;;;;;9.80;4.87;;;;;;;3.90;100.00;99984.72;5017239;28;20603;-48
2022/01/31 07:58:25;;;;;;;6.70;4.23;;;;;;;3.93;100.00;99977.09;5013658;28;20195;-48
2022/01/31 08:00:50;;;;;;;8.00;4.33;;;;;;;3.95;100.00;99980.53;5014014;28;20188;-48
2022/01/31 08:03:16;;;;;;;6.03;3.30;;;;;;;3.99;100.00;99975.47;5017972;28;20330;-48
2022/01/31 08:05:41;;;;;;;4.07;3.03;;;;;;;4.03;100.00;99957.59;5026538;28;20534;-48
2022/01/31 08:08:07;;;;;;;6.50;2.83;;;;;;;4.06;100.00;99962.75;5019486;28;20582;-48
2022/01/31 08:10:35;;;;;;;5.13;2.60;;;;;;;4.09;100.00;99947.41;5016068;28;20274;-48
2022/01/31 08:13:02;;;;;;;2.47;1.87;;;;;;;4.12;100.00;99951.72;5017954;28;20992;-48
2022/01/31 08:15:29;;;;;;;4.67;2.40;;;;;;;4.11;100.00;99960.25;5024932;28;20298;-48
2022/01/31 08:17:55;;;;;;;2.70;2.00;;;;;;;4.10;100.00;99961.06;5021406;28;20629;-50
2022/01/31 08:20:20;;;;;;;2.33;1.53;;;;;;;4.13;100.00;99956.00;5014595;28;20192;-50
2022/01/31 08:22:46;;;;;;;3.70;1.93;;;;;;;4.14;100.00;99964.53;5019252;28;20687;-49
2022/01/31 08:25:14;;;;;;;2.17;1.77;;;;;;;4.16;100.00;99955.16;5019395;28;20231;-50
2022/01/31 08:27:49;;;;;;;3.13;1.77;;;;;;;4.23;100.00;99972.34;5017958;28;20195;-50
2022/01/31 08:30:21;;;;;;;2.63;1.83;;;;;;;4.27;100.00;99962.16;5017947;28;20266;-49
2022/01/31 08:32:58;;;;;;;2.20;1.87;;;;;;;4.34;100.00;99965.63;5010734;28;20232;-49
2022/01/31 08:38:07;;;;;;;3.60;1.83;;;;;;;4.50;100.00;99943.59;5009105;28;20249;-50
2022/01/31 08:40:33;;;;;;;2.37;1.70;;;;;;;4.52;100.00;99939.34;5016419;28;20195;-49
2022/01/31 08:42:58;;;;;;;2.60;2.00;;;;;;;4.55;100.00;99935.94;5017570;28;20219;-49
2022/01/31 08:45:24;;;;;;;2.13;1.80;;;;;;;4.65;100.00;99932.63;5012722;28;20566;-49
2022/01/31 08:47:49;;;;;;;2.93;1.77;;;;;;;4.80;100.00;99941.31;5013500;28;20561;-49
2022/01/31 08:50:14;;;;;;;3.13;1.97;;;;;;;4.93;100.00;99937.13;5018222;28;20210;-49
2022/01/31 08:52:40;;;;;;;2.33;1.70;;;;;;;5.04;100.00;99933.81;5009681;28;20230;-49
2022/01/31 08:55:07;;;;;;;1.60;1.43;;;;;;;5.13;100.00;99933.03;5015414;28;20247;-49
2022/01/31 08:57:32;;;;;;;2.23;1.70;;;;;;;5.22;100.00;99929.69;5014758;28;20197;-48
2022/01/31 09:00:00;;;;;;;2.73;1.80;;;;;;;5.28;100.00;99929.72;5001934;28;20191;-48
2022/01/31 09:02:37;;;;;;;2.17;1.70;;;;;;;5.37;100.00;99930.63;5019629;28;20219;-48
2022/01/31 09:05:03;;;;;;;2.10;1.53;;;;;;;5.59;100.00;99926.47;5018822;28;20227;-48
2022/01/31 09:07:29;;;;;;;2.27;1.80;;;;;;;5.82;100.00;99925.75;5019715;28;20274;-49
2022/01/31 09:09:54;;;;;;;2.83;1.80;;;;;;;5.94;100.00;99920.69;5016610;28;20198;-48
2022/01/31 09:12:23;;;;;;;3.40;2.20;;;;;;;5.95;100.00;99923.22;5013469;28;20215;-48
2022/01/31 09:14:48;;;;;;;4.07;2.50;;;;;;;5.92;100.00;99920.66;5018204;28;20205;-48
2022/01/31 09:17:14;;;;;;;5.80;3.30;;;;;;;5.80;100.00;99929.19;5012042;28;20289;-48
2022/01/31 09:19:40;;;;;;;3.77;2.70;;;;;;;5.67;100.00;99932.53;5008104;28;20837;-48
2022/01/31 09:22:05;;;;;;;4.97;2.70;;;;;;;5.61;100.00;99929.91;5012005;28;20230;-48
2022/01/31 09:24:31;;;;;;;2.37;2.17;;;;;;;5.63;100.00;99933.38;5017839;28;20196;-48
2022/01/31 09:26:57;;;;;;;3.30;2.50;;;;;;;5.68;100.00;99926.53;5014316;28;20227;-48
2022/01/31 09:29:22;;;;;;;4.97;2.80;;;;;;;5.78;100.00;99930.00;5016771;28;20589;-47
2022/01/31 09:31:48;;;;;;;2.77;2.30;;;;;;;5.84;100.00;99924.91;5014240;28;20203;-47
2022/01/31 09:34:13;;;;;;;3.63;2.80;;;;;;;5.90;100.00;99914.63;5013410;28;20652;-48
2022/01/31 09:36:39;;;;;;;3.30;2.63;;;;;;;5.97;100.00;99913.00;5010965;28;20191;-48
2022/01/31 09:39:07;;;;;;;4.30;2.87;;;;;;;6.01;100.00;99913.88;5013221;28;20239;-48
2022/01/31 09:41:34;;;;;;;5.47;3.63;;;;;;;6.01;100.00;99912.16;5007086;28;20193;-48
2022/01/31 09:47:06;;;;;;;5.63;3.53;;;;;;;6.03;100.00;99902.75;4997559;28;20205;-48
2022/01/31 09:49:31;;;;;;;4.57;3.30;;;;;;;6.08;100.00;99913.03;5006450;28;20184;-48
2022/01/31 09:51:57;;;;;;;3.07;2.67;;;;;;;6.12;100.00;99921.63;5010131;28;20197;-48
2022/01/31 09:54:25;;;;;;;4.80;3.87;;;;;;;6.16;100.00;99926.78;5012907;28;20263;-48
2022/01/31 09:56:53;;;;;;;6.30;4.40;;;;;;;6.20;100.00;99919.94;5020895;28;20192;-48
2022/01/31 09:59:19;;;;;;;5.03;4.00;;;;;;;6.24;100.00;99929.38;5016743;28;20987;-48
2022/01/31 10:01:52;;;;;;;5.03;3.80;;;;;;;6.28;100.00;99927.66;5013133;28;20196;-48
2022/01/31 10:04:28;;;;;;;5.80;3.60;;;;;;;6.27;100.00;99916.53;5012368;28;20571;-48
2022/01/31 10:06:56;;;;;;;5.20;3.07;;;;;;;6.31;100.00;99909.69;5016680;28;20659;-48
2022/01/31 10:09:33;;;;;;;3.77;2.43;;;;;;;6.34;100.00;99910.53;5015874;28;20197;-49
2022/01/31 10:12:08;;;;;;;2.87;2.47;;;;;;;6.32;100.00;99919.97;5012278;28;20304;-49
2022/01/31 10:17:27;;;;;;;3.07;2.40;;;;;;;6.26;100.00;99909.69;5022035;28;20695;-49
2022/01/31 10:19:55;;;;;;;5.60;2.77;;;;;;;6.23;100.00;99925.09;5008295;28;20521;-49
2022/01/31 10:22:23;;;;;;;4.00;2.53;;;;;;;6.20;100.00;99907.09;5013609;28;20208;-49
2022/01/31 10:24:51;;;;;;;3.83;2.40;;;;;;;6.20;100.00;99900.22;5017071;28;20316;-49
2022/01/31 10:27:27;;;;;;;5.17;2.30;;;;;;;6.24;100.00;99906.25;5013649;28;20200;-49
2022/01/31 10:29:54;;;;;;;3.80;2.10;;;;;;;6.22;100.00;99905.38;5012013;28;20216;-48
2022/01/31 10:32:30;;;;;;;4.10;2.20;;;;;;;6.19;100.00;99898.53;5010408;28;20247;-49
2022/01/31 10:35:03;;;;;;;2.47;1.77;;;;;;;6.20;100.00;99907.94;5013210;28;20236;-49
2022/01/31 10:37:30;;;;;;;4.60;2.13;;;;;;;6.20;100.00;99889.09;5014981;28;20207;-49
2022/01/31 10:53:45;;;;;;;4.23;1.67;;;;;;;5.90;100.00;99890.69;5016062;28;20242;-48
2022/01/31 10:56:11;;;;;;;2.70;1.20;;;;;;;5.90;100.00;99891.53;5019002;28;20302;-49
2022/01/31 10:58:56;;;;;;;3.43;1.23;;;;;;;5.97;100.00;99894.13;5017929;28;20264;-48
2022/01/31 11:01:22;;;;;;;5.13;1.80;;;;;;;5.99;100.00;99884.72;5020293;28;20185;-48
2022/01/31 11:03:47;;;;;;;3.40;1.27;;;;;;;6.06;100.00;99894.19;5019510;28;20231;-48
2022/01/31 11:06:13;;;;;;;4.70;1.87;;;;;;;6.15;100.00;99889.09;5018928;28;20181;-48
2022/01/31 11:08:39;;;;;;;2.77;1.30;;;;;;;6.25;100.00;99901.09;5010336;28;20605;-51
2022/01/31 11:11:05;;;;;;;3.97;1.40;;;;;;;6.30;100.00;99880.53;5009929;28;20193;-48
2022/01/31 11:13:37;;;;;;;3.13;1.87;;;;;;;6.37;100.00;99895.13;5010462;28;20224;-48
2022/01/31 11:16:04;;;;;;;2.20;1.50;;;;;;;6.42;100.00;99897.72;5013067;28;20215;-49
2022/01/31 11:18:32;;;;;;;3.83;1.47;;;;;;;6.44;100.00;99903.72;5015284;28;20194;-48
2022/01/31 11:21:00;;;;;;;6.40;2.87;;;;;;;6.42;100.00;99897.72;5010654;28;20196;-48
2022/01/31 11:23:28;;;;;;;6.80;2.90;;;;;;;6.41;100.00;99893.41;5011660;28;20684;-49
2022/01/31 11:25:57;;;;;;;4.13;2.17;;;;;;;6.43;100.00;99894.28;5013886;28;20191;-48
2022/01/31 11:28:28;;;;;;;4.80;1.93;;;;;;;6.45;100.00;99902.88;5013003;28;20211;-48
2022/01/31 11:30:54;;;;;;;4.70;1.87;;;;;;;6.48;100.00;99892.59;5013879;28;20184;-48
2022/01/31 11:33:19;;;;;;;9.10;3.97;;;;;;;6.45;100.00;99901.97;5008560;28;20579;-48
2022/01/31 11:35:47;;;;;;;7.10;3.40;;;;;;;6.45;100.00;99895.16;5017155;28;20593;-48
2022/01/31 11:38:13;;;;;;;5.60;3.30;;;;;;;6.44;100.00;99896.00;5018413;28;20225;-48
2022/01/31 11:40:38;;;;;;;6.17;3.20;;;;;;;6.42;100.00;99905.41;5009119;28;20216;-50
2022/01/31 11:43:04;;;;;;;5.10;2.80;;;;;;;6.43;100.00;99908.88;5016751;28;20204;-50
2022/01/31 11:45:39;;;;;;;6.07;2.47;;;;;;;6.41;100.00;99890.84;5018721;28;20236;-50
2022/01/31 11:48:25;;;;;;;3.70;1.93;;;;;;;6.39;98.88;99884.84;5021065;28;20195;-50
2022/01/31 11:50:54;;;;;;;3.43;1.73;;;;;;;6.42;99.17;99892.56;5020861;28;20204;-50
2022/01/31 11:53:45;;;;;;;5.53;2.13;;;;;;;6.46;99.37;99880.56;5023692;28;20721;-49
2022/01/31 11:56:18;;;;;;;3.83;1.83;;;;;;;6.49;99.72;99888.28;5020576;28;20697;-50
2022/01/31 11:58:47;;;;;;;3.00;1.80;;;;;;;6.50;99.26;99884.88;5020001;28;20236;-50
2022/01/31 12:01:13;;;;;;;4.10;1.67;;;;;;;6.45;98.46;99874.59;5019645;28;20524;-50